Time;durP1;ratioP1;P1;durP2;ratioP2;P2;SDS_P1;SDS_P2;PMS_P1;PMS_P2;Temp;Humidity;BMP_temperature;BMP_pressure;BME280_temperature;BME280_humidity;BME280_pressure;Samples;Min_cycle;Max_cycle;Signal;HPM_P1;HPM_P2
2022/06/21 00:00:05;;;;;;;9.95;5.32;;;;;;;;;;5044418;27;93371;-73
2022/06/21 00:02:31;;;;;;;7.15;5.18;;;;;;;;;;5046416;27;92460;-73
2022/06/21 00:04:58;;;;;;;10.10;5.38;;;;;;;;;;5038405;27;94089;-73
2022/06/21 00:07:26;;;;;;;14.77;5.60;;;;;;;;;;5041049;27;92463;-73
2022/06/21 00:09:53;;;;;;;7.85;5.35;;;;;;;;;;5034081;27;93246;-73
2022/06/21 00:12:20;;;;;;;8.90;4.97;;;;;;;;;;5038746;27;93529;-73
2022/06/21 00:14:47;;;;;;;10.23;4.72;;;;;;;;;;5033999;27;92381;-73
2022/06/21 00:17:15;;;;;;;9.07;5.15;;;;;;;;;;5033352;27;93074;-73
2022/06/21 00:19:43;;;;;;;8.40;5.13;;;;;;;;;;5032139;27;96032;-73
2022/06/21 00:22:13;;;;;;;12.63;5.55;;;;;;;;;;5037566;27;92481;-73
2022/06/21 00:24:40;;;;;;;13.93;5.53;;;;;;;;;;5042949;27;93420;-73
2022/06/21 00:27:17;;;;;;;7.88;4.97;;;;;;;;;;5045653;27;94241;-73
2022/06/21 00:29:44;;;;;;;9.93;5.43;;;;;;;;;;5049520;27;93296;-73
2022/06/21 00:32:11;;;;;;;11.25;5.68;;;;;;;;;;5050060;27;93558;-73
2022/06/21 00:34:38;;;;;;;8.55;5.40;;;;;;;;;;5034495;27;92424;-73
2022/06/21 00:37:05;;;;;;;13.50;6.05;;;;;;;;;;5033731;27;92998;-73
2022/06/21 00:39:31;;;;;;;11.25;5.65;;;;;;;;;;5034324;27;94108;-73
2022/06/21 00:42:02;;;;;;;12.07;5.85;;;;;;;;;;5035737;27;92460;-73
2022/06/21 00:44:31;;;;;;;9.75;6.68;;;;;;;;;;5045713;27;95276;-73
2022/06/21 00:47:05;;;;;;;15.18;7.65;;;;;;;;;;5034257;27;94461;-73
2022/06/21 00:49:40;;;;;;;7.82;5.63;;;;;;;;;;5037545;27;92446;-73
2022/06/21 00:52:12;;;;;;;10.60;5.95;;;;;;;;;;5032917;27;93254;-73
2022/06/21 00:54:39;;;;;;;15.70;6.30;;;;;;;;;;5034200;27;92496;-73
2022/06/21 00:57:13;;;;;;;13.45;6.35;;;;;;;;;;5033670;27;93663;-73
2022/06/21 00:59:40;;;;;;;11.80;7.30;;;;;;;;;;5032854;27;94437;-74
2022/06/21 01:02:16;;;;;;;13.77;6.68;;;;;;;;;;5034775;27;91716;-74
2022/06/21 01:04:47;;;;;;;11.95;6.35;;;;;;;;;;5039429;27;93666;-74
2022/06/21 01:07:14;;;;;;;10.52;6.20;;;;;;;;;;5041107;27;95100;-74
2022/06/21 01:10:03;;;;;;;10.00;6.32;;;;;;;;;;5031908;27;96550;-74
2022/06/21 01:12:32;;;;;;;7.18;5.47;;;;;;;;;;5048441;27;95686;-74
2022/06/21 01:15:01;;;;;;;11.43;6.90;;;;;;;;;;5052771;27;92498;-74
2022/06/21 01:17:29;;;;;;;14.40;6.15;;;;;;;;;;5048779;27;94137;-74
2022/06/21 01:20:00;;;;;;;9.88;6.05;;;;;;;;;;5044315;27;93152;-74
2022/06/21 01:22:35;;;;;;;8.88;5.50;;;;;;;;;;5048504;27;92404;-74
2022/06/21 01:25:01;;;;;;;11.65;5.78;;;;;;;;;;5041422;27;94047;-74
2022/06/21 01:27:28;;;;;;;11.23;6.32;;;;;;;;;;5039008;27;93273;-74
2022/06/21 01:29:55;;;;;;;8.93;5.07;;;;;;;;;;5053017;27;93174;-74
2022/06/21 01:32:22;;;;;;;9.80;5.63;;;;;;;;;;5042724;27;95108;-74
2022/06/21 01:34:48;;;;;;;8.98;5.90;;;;;;;;;;5033355;27;96441;-74
2022/06/21 01:37:18;;;;;;;5.90;5.32;;;;;;;;;;5033785;27;96578;-74
2022/06/21 01:39:49;;;;;;;10.27;5.63;;;;;;;;;;5046677;27;94265;-74
2022/06/21 01:42:48;;;;;;;9.23;6.22;;;;;;;;;;5044624;27;92751;-74
2022/06/21 01:45:18;;;;;;;8.98;6.13;;;;;;;;;;4978512;27;93515;-74
2022/06/21 01:47:54;;;;;;;8.27;6.70;;;;;;;;;;5034395;27;94069;-74
2022/06/21 01:50:22;;;;;;;8.45;6.03;;;;;;;;;;5033259;27;92487;-74
2022/06/21 01:52:50;;;;;;;12.23;6.75;;;;;;;;;;5033983;27;93875;-74
2022/06/21 01:55:20;;;;;;;8.20;6.13;;;;;;;;;;5032506;27;93417;-74
2022/06/21 01:57:47;;;;;;;12.00;6.85;;;;;;;;;;5035670;27;92498;-74
2022/06/21 02:00:14;;;;;;;11.43;6.30;;;;;;;;;;5031472;27;96750;-74
2022/06/21 02:02:54;;;;;;;7.55;6.03;;;;;;;;;;5044897;27;93016;-74
2022/06/21 02:05:26;;;;;;;8.98;5.93;;;;;;;;;;5042449;27;93797;-74
2022/06/21 02:07:56;;;;;;;10.68;6.25;;;;;;;;;;5032766;27;94158;-74
2022/06/21 02:10:26;;;;;;;12.27;6.65;;;;;;;;;;5033392;27;92695;-74
2022/06/21 02:12:55;;;;;;;6.75;6.10;;;;;;;;;;5040394;27;93121;-74
2022/06/21 02:15:42;;;;;;;11.35;6.70;;;;;;;;;;5032350;27;94189;-74
2022/06/21 02:18:10;;;;;;;12.35;5.72;;;;;;;;;;5036791;27;91730;-74
2022/06/21 02:20:37;;;;;;;9.82;5.90;;;;;;;;;;5044488;27;93295;-74
2022/06/21 02:23:04;;;;;;;9.30;6.50;;;;;;;;;;5044829;27;93020;-74
2022/06/21 02:25:31;;;;;;;8.38;6.35;;;;;;;;;;5031176;27;94986;-74
2022/06/21 02:28:01;;;;;;;9.73;6.30;;;;;;;;;;5032664;27;94274;-74
2022/06/21 02:30:29;;;;;;;10.15;6.40;;;;;;;;;;5033679;27;92433;-73
2022/06/21 02:32:57;;;;;;;7.85;6.18;;;;;;;;;;5052213;27;93179;-72
2022/06/21 02:35:29;;;;;;;7.32;6.70;;;;;;;;;;5052656;27;94128;-73
2022/06/21 02:37:58;;;;;;;8.23;5.80;;;;;;;;;;5043811;27;92478;-72
2022/06/21 02:40:26;;;;;;;9.48;6.00;;;;;;;;;;5046155;27;94176;-73
2022/06/21 02:42:55;;;;;;;6.97;6.00;;;;;;;;;;5033949;27;91652;-73
2022/06/21 02:45:21;;;;;;;8.57;5.75;;;;;;;;;;5031697;27;92535;-72
2022/06/21 02:47:56;;;;;;;7.32;5.45;;;;;;;;;;5032820;27;94341;-73
2022/06/21 02:50:28;;;;;;;9.45;5.53;;;;;;;;;;5030477;27;94980;-73
2022/06/21 02:52:55;;;;;;;9.13;6.18;;;;;;;;;;5032921;27;96550;-73
2022/06/21 02:55:41;;;;;;;6.20;5.38;;;;;;;;;;5044657;27;94154;-73
2022/06/21 02:58:16;;;;;;;8.25;5.10;;;;;;;;;;5046358;27;92493;-73
2022/06/21 03:00:42;;;;;;;10.27;5.53;;;;;;;;;;5046830;27;94396;-73
2022/06/21 03:03:13;;;;;;;9.52;5.80;;;;;;;;;;5053464;27;94671;-72
2022/06/21 03:05:39;;;;;;;12.38;6.00;;;;;;;;;;5052434;27;93031;-73
2022/06/21 03:08:06;;;;;;;13.43;5.75;;;;;;;;;;5041908;27;93400;-73
2022/06/21 03:10:36;;;;;;;10.05;5.70;;;;;;;;;;5035478;27;92483;-73
2022/06/21 03:13:05;;;;;;;8.65;5.40;;;;;;;;;;5037103;27;94162;-73
2022/06/21 03:15:32;;;;;;;9.20;6.30;;;;;;;;;;5033635;27;96723;-73
2022/06/21 03:18:01;;;;;;;11.38;6.32;;;;;;;;;;5035186;27;92467;-73
2022/06/21 03:20:29;;;;;;;11.38;6.22;;;;;;;;;;5047523;27;93027;-72
2022/06/21 03:22:56;;;;;;;10.93;6.13;;;;;;;;;;5043203;27;93291;-72
2022/06/21 03:25:36;;;;;;;8.68;5.70;;;;;;;;;;5038055;27;92452;-73
2022/06/21 03:28:03;;;;;;;6.10;5.35;;;;;;;;;;5036109;27;94253;-72
2022/06/21 03:30:31;;;;;;;8.07;5.65;;;;;;;;;;5043341;27;92953;-72
2022/06/21 03:32:58;;;;;;;8.40;5.30;;;;;;;;;;5052387;27;92867;-72
2022/06/21 03:35:27;;;;;;;10.15;6.50;;;;;;;;;;5035393;27;94672;-72
2022/06/21 03:37:53;;;;;;;13.57;6.18;;;;;;;;;;5035264;27;92674;-72
2022/06/21 03:43:11;;;;;;;7.93;6.13;;;;;;;;;;5055128;27;94138;-73
2022/06/21 03:45:40;;;;;;;8.67;5.90;;;;;;;;;;5047961;27;92455;-73
2022/06/21 03:48:10;;;;;;;11.70;6.38;;;;;;;;;;5057167;27;94376;-72
2022/06/21 03:50:49;;;;;;;11.18;6.47;;;;;;;;;;5039163;27;92511;-72
2022/06/21 03:53:18;;;;;;;11.63;6.05;;;;;;;;;;5035148;27;93940;-74
2022/06/21 03:56:03;;;;;;;10.18;6.32;;;;;;;;;;5034256;27;94297;-73
2022/06/21 03:58:45;;;;;;;7.47;6.07;;;;;;;;;;5035295;27;91682;-73
2022/06/21 04:01:19;;;;;;;8.77;6.20;;;;;;;;;;5042870;27;93180;-73
2022/06/21 04:03:53;;;;;;;8.20;5.93;;;;;;;;;;5034763;27;94049;-73
2022/06/21 04:06:25;;;;;;;6.75;5.47;;;;;;;;;;5033881;27;95159;-73
2022/06/21 04:08:51;;;;;;;9.70;6.93;;;;;;;;;;5044069;27;96321;-73
2022/06/21 04:11:21;;;;;;;11.32;7.00;;;;;;;;;;5050501;27;92877;-73
2022/06/21 04:13:52;;;;;;;9.95;5.93;;;;;;;;;;5035006;27;92895;-73
2022/06/21 04:16:23;;;;;;;12.55;6.80;;;;;;;;;;5034018;27;94363;-73
2022/06/21 04:19:08;;;;;;;15.70;8.05;;;;;;;;;;5033879;27;92495;-73
2022/06/21 04:21:42;;;;;;;12.52;7.35;;;;;;;;;;5033457;27;92904;-73
2022/06/21 04:24:11;;;;;;;16.73;7.38;;;;;;;;;;5034636;27;92650;-73
2022/06/21 04:26:59;;;;;;;12.15;6.85;;;;;;;;;;5033600;27;92462;-73
2022/06/21 04:29:26;;;;;;;10.52;6.35;;;;;;;;;;5045533;27;93061;-73
2022/06/21 04:31:57;;;;;;;8.45;6.22;;;;;;;;;;5055966;27;96560;-73
2022/06/21 04:34:30;;;;;;;10.93;7.18;;;;;;;;;;5034450;27;95543;-73
2022/06/21 04:37:02;;;;;;;8.00;7.05;;;;;;;;;;5033607;27;94838;-73
2022/06/21 04:39:29;;;;;;;;;;;;;;;;;;5035054;27;92494;-73
2022/06/21 04:42:04;;;;;;;8.95;6.72;;;;;;;;;;5034275;27;123268;-73
2022/06/21 04:44:35;;;;;;;10.20;6.45;;;;;;;;;;5041542;27;93495;-73
2022/06/21 04:47:20;;;;;;;17.17;7.68;;;;;;;;;;5033763;27;92475;-72
2022/06/21 04:49:52;;;;;;;12.65;7.45;;;;;;;;;;5033329;27;93123;-72
2022/06/21 04:52:35;;;;;;;10.80;7.70;;;;;;;;;;5034086;27;93583;-72
2022/06/21 04:55:03;;;;;;;11.80;6.70;;;;;;;;;;5037773;27;92451;-72
2022/06/21 04:57:30;;;;;;;9.68;7.30;;;;;;;;;;5047524;27;96297;-73
2022/06/21 04:59:58;;;;;;;10.02;6.45;;;;;;;;;;5044094;27;92516;-73
2022/06/21 05:02:29;;;;;;;12.02;6.60;;;;;;;;;;5036915;27;94262;-73
2022/06/21 05:04:59;;;;;;;9.68;6.25;;;;;;;;;;5032900;27;93770;-73
2022/06/21 05:07:29;;;;;;;8.68;6.05;;;;;;;;;;5043580;27;92478;-73
2022/06/21 05:09:56;;;;;;;7.43;5.55;;;;;;;;;;5039174;27;94088;-73
2022/06/21 05:12:31;;;;;;;7.60;6.28;;;;;;;;;;5032504;27;93197;-73
2022/06/21 05:15:02;;;;;;;8.35;5.90;;;;;;;;;;5034594;27;92123;-73
2022/06/21 05:17:29;;;;;;;13.73;6.43;;;;;;;;;;5037019;27;93199;-73
2022/06/21 05:19:58;;;;;;;11.45;5.90;;;;;;;;;;5037097;27;92482;-73
2022/06/21 05:22:30;;;;;;;9.52;5.75;;;;;;;;;;5048864;27;95022;-73
2022/06/21 05:24:57;;;;;;;10.13;5.45;;;;;;;;;;5046509;27;94195;-73
2022/06/21 05:27:29;;;;;;;8.85;5.10;;;;;;;;;;5041043;27;92466;-73
2022/06/21 05:30:01;;;;;;;11.23;5.72;;;;;;;;;;5033155;27;93250;-73
2022/06/21 05:32:29;;;;;;;9.93;5.20;;;;;;;;;;5033078;27;93627;-73
2022/06/21 05:34:58;;;;;;;9.15;5.53;;;;;;;;;;5044137;27;92454;-73
2022/06/21 05:37:32;;;;;;;13.43;5.15;;;;;;;;;;5052524;27;93352;-73
2022/06/21 05:40:00;;;;;;;8.95;4.85;;;;;;;;;;5046553;27;92736;-73
2022/06/21 05:42:30;;;;;;;12.73;3.93;;;;;;;;;;5017762;27;93788;-73
2022/06/21 05:45:03;;;;;;;13.00;4.35;;;;;;;;;;5037898;27;94439;-73
2022/06/21 05:47:43;;;;;;;10.85;3.78;;;;;;;;;;5033071;27;95305;-73
2022/06/21 05:50:26;;;;;;;5.93;3.50;;;;;;;;;;5033014;27;95814;-73
2022/06/21 05:52:55;;;;;;;8.10;3.45;;;;;;;;;;5033200;27;94460;-74
2022/06/21 05:55:25;;;;;;;10.27;3.35;;;;;;;;;;5032592;27;92854;-72
2022/06/21 05:57:53;;;;;;;10.25;3.42;;;;;;;;;;5034363;27;93261;-72
2022/06/21 06:00:29;;;;;;;16.20;3.55;;;;;;;;;;5030284;27;93904;-72
2022/06/21 06:03:09;;;;;;;7.00;2.88;;;;;;;;;;5035937;27;94742;-72
2022/06/21 06:05:36;;;;;;;8.30;3.13;;;;;;;;;;5020913;27;93584;-72
2022/06/21 06:08:08;;;;;;;7.13;2.67;;;;;;;;;;5025542;27;94979;-72
2022/06/21 06:10:35;;;;;;;4.18;2.25;;;;;;;;;;5025027;27;94053;-72
2022/06/21 06:13:05;;;;;;;5.60;2.70;;;;;;;;;;5039821;27;95972;-72
2022/06/21 06:15:38;;;;;;;7.68;2.72;;;;;;;;;;5031862;27;92514;-72
2022/06/21 06:18:04;;;;;;;6.72;2.80;;;;;;;;;;5039929;27;93460;-72
2022/06/21 06:20:43;;;;;;;7.47;2.75;;;;;;;;;;5047325;27;93277;-72
2022/06/21 06:23:10;;;;;;;5.88;2.22;;;;;;;;;;5034757;27;93984;-72
2022/06/21 06:25:52;;;;;;;3.97;2.65;;;;;;;;;;5031702;27;93448;-72
2022/06/21 06:28:41;;;;;;;6.47;2.30;;;;;;;;;;5032330;27;92474;-72
2022/06/21 06:31:22;;;;;;;7.07;2.55;;;;;;;;;;5031417;27;93390;-72
2022/06/21 06:33:55;;;;;;;10.48;2.78;;;;;;;;;;5034501;27;93296;-72
2022/06/21 06:36:26;;;;;;;6.95;2.80;;;;;;;;;;5035356;27;93346;-72
2022/06/21 06:38:53;;;;;;;;;;;;;;;;;;5030998;27;97010;-73
2022/06/21 06:41:26;;;;;;;7.25;2.45;;;;;;;;;;5034395;27;123782;-73
2022/06/21 06:44:03;;;;;;;6.93;2.67;;;;;;;;;;5033450;27;93254;-73
2022/06/21 06:46:31;;;;;;;7.15;2.50;;;;;;;;;;5039725;27;93861;-72
2022/06/21 06:49:20;;;;;;;7.05;3.05;;;;;;;;;;5031661;27;94980;-73
2022/06/21 06:51:55;;;;;;;13.00;2.72;;;;;;;;;;5037234;27;93910;-73
2022/06/21 06:54:26;;;;;;;7.28;2.60;;;;;;;;;;5036311;27;94452;-73
2022/06/21 06:56:57;;;;;;;9.40;3.30;;;;;;;;;;5030689;27;93626;-73
2022/06/21 06:59:25;;;;;;;4.38;2.45;;;;;;;;;;5032908;27;93268;-73
2022/06/21 07:01:57;;;;;;;6.30;2.60;;;;;;;;;;5032601;27;94127;-73
2022/06/21 07:04:27;;;;;;;7.85;3.28;;;;;;;;;;5034626;27;95181;-73
2022/06/21 07:06:57;;;;;;;5.25;2.60;;;;;;;;;;5037934;27;95639;-73
2022/06/21 07:09:23;;;;;;;6.95;2.40;;;;;;;;;;5046032;27;94230;-73
2022/06/21 07:12:02;;;;;;;9.57;2.45;;;;;;;;;;5037447;27;94281;-73
2022/06/21 07:14:29;;;;;;;7.40;2.47;;;;;;;;;;5032851;27;94885;-73
2022/06/21 07:17:03;;;;;;;4.28;2.30;;;;;;;;;;5032584;27;94421;-73
2022/06/21 07:19:30;;;;;;;7.60;2.13;;;;;;;;;;5030601;27;94475;-73
2022/06/21 07:21:56;;;;;;;7.13;2.90;;;;;;;;;;5035078;27;93712;-73
2022/06/21 07:24:23;;;;;;;7.45;2.25;;;;;;;;;;5036398;27;94085;-71
2022/06/21 07:26:51;;;;;;;6.90;2.67;;;;;;;;;;5035600;27;93368;-73
2022/06/21 07:29:17;;;;;;;4.28;2.10;;;;;;;;;;5033237;27;97773;-73
2022/06/21 07:32:05;;;;;;;4.05;2.00;;;;;;;;;;5034727;27;92546;-74
2022/06/21 07:34:47;;;;;;;6.72;2.22;;;;;;;;;;5017495;27;93409;-71
2022/06/21 07:37:20;;;;;;;4.13;2.08;;;;;;;;;;5034576;27;93862;-71
2022/06/21 07:39:52;;;;;;;4.50;1.92;;;;;;;;;;5033318;27;93932;-72
2022/06/21 07:42:24;;;;;;;4.28;2.33;;;;;;;;;;5033097;27;96348;-72
2022/06/21 07:44:53;;;;;;;8.90;2.67;;;;;;;;;;5033968;27;92546;-72
2022/06/21 07:47:49;;;;;;;12.40;2.55;;;;;;;;;;5030843;27;93560;-72
2022/06/21 07:50:22;;;;;;;8.95;2.40;;;;;;;;;;5022885;27;93843;-73
2022/06/21 07:52:51;;;;;;;5.75;2.60;;;;;;;;;;5033600;27;92546;-72
2022/06/21 07:55:25;;;;;;;5.43;2.08;;;;;;;;;;5037692;27;95085;-73
2022/06/21 07:58:12;;;;;;;2.67;1.42;;;;;;;;;;5035150;27;92406;-72
2022/06/21 08:09:09;;;;;;;3.08;1.45;;;;;;;;;;5038675;27;95594;-72
2022/06/21 08:11:37;;;;;;;5.03;1.88;;;;;;;;;;5033949;27;94374;-72
2022/06/21 08:14:04;;;;;;;4.47;2.08;;;;;;;;;;5041321;27;91788;-72
2022/06/21 08:16:35;;;;;;;5.15;2.03;;;;;;;;;;5033631;27;92698;-72
2022/06/21 08:19:15;;;;;;;4.20;1.80;;;;;;;;;;5036679;27;94693;-72
2022/06/21 08:21:47;;;;;;;9.15;1.80;;;;;;;;;;5031483;27;94953;-72
2022/06/21 08:24:19;;;;;;;4.60;1.95;;;;;;;;;;5033946;27;93117;-72
2022/06/21 08:26:49;;;;;;;4.40;2.15;;;;;;;;;;5046823;27;93114;-72
2022/06/21 08:29:15;;;;;;;6.80;2.03;;;;;;;;;;5045399;27;93731;-72
2022/06/21 08:31:44;;;;;;;7.68;1.75;;;;;;;;;;5049982;27;94068;-72
2022/06/21 08:34:18;;;;;;;5.55;1.77;;;;;;;;;;5034518;27;92492;-72
2022/06/21 08:36:49;;;;;;;4.93;1.67;;;;;;;;;;5041371;27;92876;-72
2022/06/21 08:39:19;;;;;;;3.25;1.50;;;;;;;;;;5044989;27;92499;-72
2022/06/21 08:41:52;;;;;;;2.63;1.48;;;;;;;;;;5033202;27;94042;-72
2022/06/21 08:44:39;;;;;;;3.95;1.42;;;;;;;;;;5035104;27;93511;-72
2022/06/21 08:47:15;;;;;;;4.18;1.75;;;;;;;;;;4991714;27;95562;-72
2022/06/21 08:50:14;;;;;;;3.55;1.63;;;;;;;;;;5031787;27;95221;-72
2022/06/21 08:52:52;;;;;;;4.50;2.00;;;;;;;;;;5033109;27;93160;-72
2022/06/21 08:55:18;;;;;;;7.10;2.20;;;;;;;;;;5032501;27;92538;-72
2022/06/21 08:57:57;;;;;;;5.38;1.65;;;;;;;;;;5041037;27;93106;-72
2022/06/21 09:00:23;;;;;;;4.53;1.80;;;;;;;;;;5040707;27;93922;-72
2022/06/21 09:02:50;;;;;;;2.47;1.50;;;;;;;;;;5045028;27;93718;-72
2022/06/21 09:05:35;;;;;;;5.65;2.28;;;;;;;;;;5033130;27;93218;-72
2022/06/21 09:08:07;;;;;;;7.70;2.03;;;;;;;;;;5032872;27;92464;-72
2022/06/21 09:10:36;;;;;;;3.92;1.77;;;;;;;;;;5032540;28;93294;-72
2022/06/21 09:13:03;;;;;;;7.47;2.00;;;;;;;;;;5032077;28;96831;-72
2022/06/21 09:15:33;;;;;;;8.02;1.95;;;;;;;;;;5034110;27;92434;-71
2022/06/21 09:18:08;;;;;;;3.90;2.30;;;;;;;;;;5038697;27;93064;-72
2022/06/21 09:20:54;;;;;;;4.43;1.73;;;;;;;;;;5041367;27;93538;-72
2022/06/21 09:23:39;;;;;;;4.60;1.85;;;;;;;;;;5053823;27;92627;-71
2022/06/21 09:26:09;;;;;;;3.88;2.15;;;;;;;;;;5044829;27;93135;-72
2022/06/21 09:28:48;;;;;;;5.57;2.20;;;;;;;;;;5032607;27;92879;-72
2022/06/21 09:31:26;;;;;;;4.63;1.80;;;;;;;;;;5032826;27;93638;-72
2022/06/21 09:34:13;;;;;;;4.78;2.05;;;;;;;;;;5032949;27;94004;-73
2022/06/21 09:36:54;;;;;;;4.28;1.60;;;;;;;;;;4996119;27;94354;-72
2022/06/21 09:39:36;;;;;;;2.33;1.65;;;;;;;;;;5040117;27;94869;-72
2022/06/21 09:42:03;;;;;;;2.40;1.50;;;;;;;;;;5035873;27;94469;-72
2022/06/21 09:44:39;;;;;;;3.88;1.60;;;;;;;;;;5031297;27;92526;-72
2022/06/21 09:47:14;;;;;;;3.70;1.80;;;;;;;;;;5034694;27;94724;-71
2022/06/21 09:49:44;;;;;;;4.60;2.03;;;;;;;;;;5033308;27;94438;-71
2022/06/21 09:52:20;;;;;;;3.63;1.42;;;;;;;;;;5031217;27;94469;-72
2022/06/21 09:54:59;;;;;;;5.57;1.77;;;;;;;;;;5027973;27;94301;-72
2022/06/21 09:57:25;;;;;;;6.60;1.60;;;;;;;;;;5029601;27;93401;-71
2022/06/21 10:00:02;;;;;;;4.78;1.30;;;;;;;;;;5031721;27;93309;-71
2022/06/21 10:02:43;;;;;;;2.13;1.42;;;;;;;;;;5027652;27;92756;-71
2022/06/21 10:05:20;;;;;;;1.83;1.38;;;;;;;;;;5029661;27;97078;-71
2022/06/21 10:08:06;;;;;;;5.10;1.58;;;;;;;;;;5027253;27;94172;-72
2022/06/21 10:10:45;;;;;;;4.35;1.30;;;;;;;;;;5032439;27;94367;-72
2022/06/21 10:13:23;;;;;;;5.40;1.63;;;;;;;;;;5038469;27;92983;-72
2022/06/21 10:16:02;;;;;;;4.35;1.20;;;;;;;;;;5030185;27;94327;-72
2022/06/21 10:18:46;;;;;;;4.03;1.60;;;;;;;;;;5028421;27;93939;-72
2022/06/21 10:21:29;;;;;;;3.28;2.03;;;;;;;;;;5035240;27;93898;-72
2022/06/21 10:24:24;;;;;;;3.25;1.48;;;;;;;;;;5030396;27;93313;-72
2022/06/21 10:27:08;;;;;;;6.05;1.90;;;;;;;;;;5012370;27;93133;-72
2022/06/21 10:29:41;;;;;;;6.78;1.80;;;;;;;;;;5028266;27;94442;-72
2022/06/21 10:32:25;;;;;;;2.40;1.70;;;;;;;;;;5023368;27;97812;-72
2022/06/21 10:34:58;;;;;;;3.90;1.95;;;;;;;;;;5026708;27;94068;-72
2022/06/21 10:37:24;;;;;;;3.70;1.60;;;;;;;;;;5041221;27;93031;-72
2022/06/21 10:39:53;;;;;;;4.82;2.13;;;;;;;;;;5027125;27;92595;-72
2022/06/21 10:45:26;;;;;;;1.98;1.50;;;;;;;;;;5032605;27;94205;-73
2022/06/21 10:47:55;;;;;;;2.90;1.48;;;;;;;;;;5032353;27;92475;-72
2022/06/21 10:50:38;;;;;;;5.97;2.03;;;;;;;;;;5050477;27;93945;-72
2022/06/21 10:53:24;;;;;;;4.57;1.73;;;;;;;;;;5048606;27;95232;-73
2022/06/21 10:55:50;;;;;;;5.97;1.60;;;;;;;;;;5034253;27;92545;-73
2022/06/21 10:58:43;;;;;;;4.60;1.83;;;;;;;;;;5032696;27;96327;-73
2022/06/21 11:01:17;;;;;;;3.50;1.60;;;;;;;;;;5030339;27;92759;-73
2022/06/21 11:04:02;;;;;;;3.63;1.35;;;;;;;;;;5031219;27;93901;-72
2022/06/21 11:06:34;;;;;;;4.07;1.40;;;;;;;;;;5032478;27;93628;-72
2022/06/21 11:09:10;;;;;;;3.67;1.33;;;;;;;;;;5032588;27;94989;-72
2022/06/21 11:11:42;;;;;;;2.55;1.38;;;;;;;;;;5030801;27;93977;-72
2022/06/21 11:14:28;;;;;;;4.30;1.60;;;;;;;;;;5031576;27;94532;-71
2022/06/21 11:16:57;;;;;;;4.28;1.40;;;;;;;;;;5032394;27;91881;-71
2022/06/21 11:19:26;;;;;;;4.22;1.70;;;;;;;;;;5031931;27;93138;-71
2022/06/21 11:22:20;;;;;;;6.72;2.00;;;;;;;;;;5037413;27;93264;-71
2022/06/21 11:25:07;;;;;;;4.22;1.88;;;;;;;;;;5032369;27;95361;-69
2022/06/21 11:27:39;;;;;;;3.00;1.65;;;;;;;;;;5031859;27;94436;-70
2022/06/21 11:30:05;;;;;;;5.82;1.85;;;;;;;;;;5030417;27;94631;-70
2022/06/21 11:32:47;;;;;;;3.97;1.60;;;;;;;;;;5032779;27;93296;-70
2022/06/21 11:35:18;;;;;;;6.97;1.98;;;;;;;;;;5029254;27;94483;-71
2022/06/21 11:37:50;;;;;;;1.50;1.40;;;;;;;;;;5033304;27;94943;-70
2022/06/21 11:40:35;;;;;;;1.83;1.40;;;;;;;;;;5030791;27;94167;-71
2022/06/21 11:43:03;;;;;;;3.60;2.00;;;;;;;;;;5034889;27;92812;-71
2022/06/21 11:45:30;;;;;;;4.43;1.85;;;;;;;;;;5040464;27;93122;-71
2022/06/21 11:48:23;;;;;;;4.45;1.60;;;;;;;;;;5037378;27;94255;-71
2022/06/21 11:51:11;;;;;;;3.00;1.75;;;;;;;;;;5029321;27;95837;-71
2022/06/21 11:54:01;;;;;;;5.65;2.67;;;;;;;;;;5033356;27;95692;-72
2022/06/21 11:56:33;;;;;;;3.15;1.48;;;;;;;;;;5032691;27;94245;-70
2022/06/21 11:59:04;;;;;;;4.65;1.67;;;;;;;;;;5030118;27;94948;-71
2022/06/21 12:01:37;;;;;;;4.55;1.83;;;;;;;;;;5033398;27;93149;-70
2022/06/21 12:04:24;;;;;;;2.50;1.50;;;;;;;;;;5029942;27;93926;-70
2022/06/21 12:06:54;;;;;;;5.15;1.90;;;;;;;;;;5033780;27;93064;-72
2022/06/21 12:09:42;;;;;;;6.03;1.60;;;;;;;;;;5042958;27;91937;-72
2022/06/21 12:12:27;;;;;;;7.78;2.00;;;;;;;;;;5033927;27;92447;-72
2022/06/21 12:15:03;;;;;;;2.72;1.70;;;;;;;;;;5033379;28;93578;-72
2022/06/21 12:17:49;;;;;;;11.88;2.00;;;;;;;;;;5040471;27;96643;-71
2022/06/21 12:20:39;;;;;;;3.13;1.80;;;;;;;;;;5037462;27;92561;-71
2022/06/21 12:23:13;;;;;;;1.60;1.50;;;;;;;;;;4992152;27;93193;-71
2022/06/21 12:25:40;;;;;;;2.38;1.70;;;;;;;;;;5046061;27;93196;-71
2022/06/21 12:28:11;;;;;;;3.22;1.65;;;;;;;;;;5033358;27;92498;-72
2022/06/21 12:30:58;;;;;;;2.65;1.30;;;;;;;;;;5041772;27;93131;-71
2022/06/21 12:33:25;;;;;;;1.60;1.40;;;;;;;;;;5052172;27;93207;-71
2022/06/21 12:35:54;;;;;;;3.47;1.50;;;;;;;;;;5033694;27;93811;-71
2022/06/21 12:38:28;;;;;;;2.30;1.98;;;;;;;;;;5041195;27;93556;-71
2022/06/21 12:41:04;;;;;;;2.67;1.92;;;;;;;;;;5047585;27;93678;-72
2022/06/21 12:43:41;;;;;;;3.20;1.58;;;;;;;;;;5032172;27;95876;-71
2022/06/21 12:46:14;;;;;;;5.00;1.88;;;;;;;;;;5033469;27;93543;-71
2022/06/21 12:48:59;;;;;;;7.03;1.88;;;;;;;;;;5032786;27;93196;-72
2022/06/21 12:51:29;;;;;;;4.13;1.52;;;;;;;;;;5040472;27;93100;-72
2022/06/21 12:54:02;;;;;;;3.10;1.83;;;;;;;;;;5034184;27;94212;-72
2022/06/21 12:56:31;;;;;;;2.15;1.30;;;;;;;;;;5037355;27;94672;-72
2022/06/21 12:59:06;;;;;;;4.63;1.83;;;;;;;;;;5033109;27;93538;-72
2022/06/21 13:01:39;;;;;;;6.00;1.50;;;;;;;;;;5034434;27;92306;-72
2022/06/21 13:04:19;;;;;;;2.20;1.38;;;;;;;;;;5033927;27;92655;-72
2022/06/21 13:06:53;;;;;;;4.40;1.90;;;;;;;;;;5033629;27;94074;-72
2022/06/21 13:09:39;;;;;;;4.03;2.08;;;;;;;;;;5031679;27;95278;-72
2022/06/21 13:12:13;;;;;;;1.40;1.30;;;;;;;;;;5052965;27;96285;-72
2022/06/21 13:14:45;;;;;;;5.25;1.90;;;;;;;;;;5037969;27;94162;-71
2022/06/21 13:17:31;;;;;;;5.20;1.73;;;;;;;;;;5040026;27;92490;-72
2022/06/21 13:20:05;;;;;;;7.32;2.50;;;;;;;;;;5042889;27;94598;-71
2022/06/21 13:22:44;;;;;;;3.13;1.73;;;;;;;;;;5033244;27;92633;-72
2022/06/21 13:25:29;;;;;;;2.88;1.88;;;;;;;;;;5043574;27;96520;-71
2022/06/21 13:28:13;;;;;;;3.50;1.80;;;;;;;;;;5053224;27;93215;-72
2022/06/21 13:30:49;;;;;;;3.60;1.98;;;;;;;;;;5043627;27;94047;-72
2022/06/21 13:33:19;;;;;;;3.63;1.52;;;;;;;;;;5045261;27;93268;-71
2022/06/21 13:35:57;;;;;;;8.27;1.55;;;;;;;;;;5033855;27;95968;-72
2022/06/21 13:38:29;;;;;;;8.45;1.80;;;;;;;;;;5036354;27;92463;-72
2022/06/21 13:41:02;;;;;;;3.58;1.70;;;;;;;;;;5036661;27;93268;-72
2022/06/21 13:43:36;;;;;;;3.33;1.60;;;;;;;;;;5046341;27;92471;-72
2022/06/21 13:46:14;;;;;;;3.00;1.67;;;;;;;;;;5050848;27;93131;-72
2022/06/21 13:48:50;;;;;;;4.57;1.88;;;;;;;;;;5047065;27;92417;-72
2022/06/21 13:51:18;;;;;;;2.30;1.63;;;;;;;;;;5032077;27;93123;-72
2022/06/21 13:53:48;;;;;;;4.10;1.70;;;;;;;;;;5032481;27;93121;-72
2022/06/21 13:56:19;;;;;;;5.78;1.80;;;;;;;;;;5034081;27;93827;-72
2022/06/21 13:58:47;;;;;;;4.30;1.48;;;;;;;;;;5032295;27;92518;-72
2022/06/21 14:01:15;;;;;;;7.72;1.70;;;;;;;;;;5030747;27;94867;-72
2022/06/21 14:03:41;;;;;;;7.63;1.73;;;;;;;;;;5049458;27;94183;-71
2022/06/21 14:06:19;;;;;;;6.18;1.45;;;;;;;;;;5034380;27;93077;-72
2022/06/21 14:08:45;;;;;;;6.05;1.60;;;;;;;;;;5032280;27;93582;-71
2022/06/21 14:11:25;;;;;;;3.13;1.40;;;;;;;;;;5048701;27;92483;-71
2022/06/21 14:13:58;;;;;;;5.18;1.30;;;;;;;;;;5040012;27;93929;-72
2022/06/21 14:16:25;;;;;;;3.00;1.48;;;;;;;;;;5035246;27;94237;-73
2022/06/21 14:19:15;;;;;;;3.33;1.70;;;;;;;;;;5052459;27;91730;-72
2022/06/21 14:21:45;;;;;;;4.07;1.58;;;;;;;;;;5031075;27;93289;-72
2022/06/21 14:24:17;;;;;;;4.00;1.10;;;;;;;;;;5031312;27;93507;-73
2022/06/21 14:26:49;;;;;;;4.55;1.90;;;;;;;;;;5034722;27;94959;-74
2022/06/21 14:29:25;;;;;;;6.53;1.50;;;;;;;;;;5031385;27;94433;-72
2022/06/21 14:32:09;;;;;;;3.58;1.50;;;;;;;;;;5040809;27;92935;-73
2022/06/21 14:34:50;;;;;;;6.13;1.67;;;;;;;;;;5034301;27;93261;-72
2022/06/21 14:37:27;;;;;;;11.18;5.20;;;;;;;;;;5029902;27;93905;-72
2022/06/21 14:40:20;;;;;;;4.28;2.35;;;;;;;;;;5029996;27;95111;-72
2022/06/21 14:42:52;;;;;;;5.70;2.40;;;;;;;;;;5030402;27;93129;-72
2022/06/21 14:45:33;;;;;;;2.50;1.80;;;;;;;;;;5029648;27;93318;-76
2022/06/21 14:48:04;;;;;;;6.22;1.55;;;;;;;;;;5035026;27;93921;-74
2022/06/21 14:50:36;;;;;;;4.63;2.20;;;;;;;;;;5041567;27;92875;-74
2022/06/21 14:53:06;;;;;;;4.55;2.35;;;;;;;;;;5034753;27;94909;-74
2022/06/21 14:55:40;;;;;;;10.68;1.65;;;;;;;;;;5033863;27;95701;-73
2022/06/21 14:58:35;;;;;;;6.70;1.60;;;;;;;;;;5032288;27;93389;-75
2022/06/21 15:01:07;;;;;;;9.35;1.90;;;;;;;;;;5032417;27;94053;-73
2022/06/21 15:03:38;;;;;;;3.03;1.38;;;;;;;;;;5031916;27;94501;-73
2022/06/21 15:06:07;;;;;;;4.57;1.65;;;;;;;;;;5030458;27;93862;-74
2022/06/21 15:08:47;;;;;;;3.97;1.63;;;;;;;;;;5026972;27;93824;-73
2022/06/21 15:14:20;;;;;;;2.05;1.52;;;;;;;;;;5038221;27;94561;-73
2022/06/21 15:17:07;;;;;;;3.85;1.73;;;;;;;;;;5033960;27;93899;-73
2022/06/21 15:19:55;;;;;;;4.82;1.70;;;;;;;;;;5043763;27;96602;-73
2022/06/21 15:22:41;;;;;;;3.35;1.50;;;;;;;;;;5039476;27;92523;-73
2022/06/21 15:25:11;;;;;;;3.97;1.95;;;;;;;;;;5032981;27;93898;-73
2022/06/21 15:27:40;;;;;;;3.67;1.85;;;;;;;;;;5035156;27;94112;-74
2022/06/21 15:30:07;;;;;;;3.60;1.60;;;;;;;;;;5032957;27;95621;-73
2022/06/21 15:32:36;;;;;;;2.08;1.45;;;;;;;;;;5035697;27;94227;-73
2022/06/21 15:35:03;;;;;;;2.88;1.40;;;;;;;;;;5035615;27;93290;-74